Time;durP1;ratioP1;P1;durP2;ratioP2;P2;SDS_P1;SDS_P2;PMS_P1;PMS_P2;Temp;Humidity;BMP_temperature;BMP_pressure;BME280_temperature;BME280_humidity;BME280_pressure;Samples;Min_cycle;Max_cycle;Signal;HPM_P1;HPM_P2
2021/08/13 00:00:32;;;;;;;6.35;5.20;;;14.00;99.90;;;;;;5011271;28;20037;-46
2021/08/13 00:02:57;;;;;;;5.65;4.18;;;14.00;99.90;;;;;;5012427;28;20394;-47
2021/08/13 00:05:23;;;;;;;5.65;4.60;;;14.00;99.90;;;;;;5012402;28;20492;-46
2021/08/13 00:07:48;;;;;;;5.15;4.65;;;14.00;99.90;;;;;;5012563;28;20504;-47
2021/08/13 00:10:14;;;;;;;4.82;3.78;;;14.00;99.90;;;;;;5012576;28;20029;-46
2021/08/13 00:12:39;;;;;;;6.45;5.03;;;14.00;99.90;;;;;;5012515;28;20029;-47
2021/08/13 00:15:06;;;;;;;6.05;5.13;;;14.00;99.90;;;;;;5011250;28;20030;-48
2021/08/13 00:17:31;;;;;;;5.70;4.50;;;14.00;99.90;;;;;;5012430;28;20073;-46
2021/08/13 00:19:57;;;;;;;6.00;4.97;;;14.00;99.90;;;;;;5012470;28;20026;-48
2021/08/13 00:22:22;;;;;;;6.15;4.38;;;14.00;99.90;;;;;;5012278;28;20029;-47
2021/08/13 00:24:48;;;;;;;6.15;4.75;;;14.00;99.90;;;;;;5013932;28;20485;-45
2021/08/13 00:27:14;;;;;;;5.18;4.50;;;14.00;99.90;;;;;;5016393;28;20424;-48
2021/08/13 00:29:40;;;;;;;4.05;3.65;;;14.00;99.90;;;;;;5014817;28;20034;-47
2021/08/13 00:32:05;;;;;;;4.63;4.15;;;14.00;99.90;;;;;;5016165;28;20049;-48
2021/08/13 00:34:31;;;;;;;8.00;5.22;;;14.00;99.90;;;;;;5015801;28;20042;-45
2021/08/13 00:36:57;;;;;;;6.25;4.88;;;14.00;99.90;;;;;;5016060;28;20026;-48
2021/08/13 00:39:22;;;;;;;6.63;5.40;;;14.10;99.90;;;;;;5015960;28;20036;-45
2021/08/13 00:41:48;;;;;;;4.30;3.80;;;14.10;99.90;;;;;;5015846;28;20025;-46
2021/08/13 00:44:13;;;;;;;5.72;4.50;;;14.10;99.90;;;;;;5014572;28;20028;-45
2021/08/13 00:46:39;;;;;;;5.82;4.82;;;14.10;99.90;;;;;;5015818;28;20034;-46
2021/08/13 00:49:04;;;;;;;6.63;4.25;;;14.00;99.90;;;;;;5015883;28;20129;-47
2021/08/13 00:51:30;;;;;;;6.03;4.60;;;14.00;99.90;;;;;;5015552;28;20442;-47
2021/08/13 00:53:56;;;;;;;4.18;3.78;;;13.90;99.90;;;;;;5015774;28;20030;-48
2021/08/13 00:56:21;;;;;;;7.30;4.93;;;14.00;99.90;;;;;;5015752;28;20477;-46
2021/08/13 00:58:48;;;;;;;5.78;4.95;;;13.90;99.90;;;;;;5015629;28;20041;-49
2021/08/13 01:01:13;;;;;;;4.80;3.72;;;14.00;99.90;;;;;;5014243;28;20026;-46
2021/08/13 01:03:39;;;;;;;5.53;4.50;;;13.90;99.90;;;;;;5015210;28;20397;-45
2021/08/13 01:06:07;;;;;;;5.38;4.53;;;13.90;99.90;;;;;;5015393;28;20068;-46
2021/08/13 01:08:33;;;;;;;8.25;5.80;;;13.90;99.90;;;;;;5015436;28;20022;-47
2021/08/13 01:11:04;;;;;;;6.00;4.97;;;13.90;99.90;;;;;;5015341;28;20056;-44
2021/08/13 01:14:07;;;;;;;6.35;5.35;;;13.90;99.90;;;;;;5015325;28;20026;-47
2021/08/13 01:16:38;;;;;;;5.20;4.65;;;13.90;99.90;;;;;;5014643;28;20030;-47
2021/08/13 01:19:37;;;;;;;4.88;4.38;;;13.90;99.90;;;;;;5015226;28;20026;-48
2021/08/13 01:22:10;;;;;;;7.30;4.75;;;13.90;99.90;;;;;;5015126;28;20237;-47
2021/08/13 01:24:41;;;;;;;6.35;5.60;;;13.90;99.90;;;;;;5015030;28;20026;-47
2021/08/13 01:27:18;;;;;;;7.43;5.43;;;14.00;99.90;;;;;;5015264;28;20029;-46
2021/08/13 01:29:54;;;;;;;5.53;4.90;;;14.10;99.90;;;;;;5013664;28;20394;-46
2021/08/13 01:32:46;;;;;;;5.68;5.10;;;14.10;99.90;;;;;;5015069;28;20029;-47
2021/08/13 01:35:18;;;;;;;6.28;5.32;;;14.10;99.90;;;;;;5011886;28;20084;-50
2021/08/13 01:37:50;;;;;;;7.20;5.45;;;14.20;99.90;;;;;;5012835;28;20044;-45
2021/08/13 01:40:17;;;;;;;7.65;5.47;;;14.20;99.90;;;;;;5015003;28;20025;-46
2021/08/13 01:42:45;;;;;;;10.02;5.65;;;14.20;99.90;;;;;;5014763;28;20022;-46
2021/08/13 01:45:21;;;;;;;6.35;5.00;;;14.10;99.90;;;;;;5013499;28;20032;-45
2021/08/13 01:47:50;;;;;;;5.88;5.10;;;14.10;99.90;;;;;;5014485;28;20048;-47
2021/08/13 01:50:17;;;;;;;5.65;4.82;;;14.10;99.90;;;;;;5014646;28;20034;-47
2021/08/13 01:52:44;;;;;;;5.13;4.05;;;14.10;99.90;;;;;;5014854;28;20350;-47
2021/08/13 01:55:12;;;;;;;5.47;4.65;;;14.10;99.90;;;;;;5013319;28;20156;-46
2021/08/13 01:57:38;;;;;;;6.90;5.55;;;14.10;99.90;;;;;;5014441;28;20033;-47
2021/08/13 02:00:06;;;;;;;7.05;5.35;;;14.10;99.90;;;;;;5013054;28;20040;-47
2021/08/13 02:02:33;;;;;;;5.35;4.85;;;14.10;99.90;;;;;;5014313;28;20021;-46
2021/08/13 02:05:00;;;;;;;5.05;4.25;;;14.10;99.90;;;;;;5014161;28;20042;-46
2021/08/13 02:07:27;;;;;;;5.00;4.07;;;14.10;99.90;;;;;;5014319;28;20366;-47
2021/08/13 02:09:53;;;;;;;5.18;4.25;;;14.10;99.90;;;;;;5014261;28;20030;-47
2021/08/13 02:12:18;;;;;;;4.88;4.15;;;14.10;99.90;;;;;;5014249;28;20026;-45
2021/08/13 02:14:44;;;;;;;6.15;4.80;;;14.00;99.90;;;;;;5012685;28;20022;-49
2021/08/13 02:17:17;;;;;;;5.13;4.63;;;14.10;99.90;;;;;;5014211;28;20057;-47
2021/08/13 02:19:53;;;;;;;5.45;4.40;;;14.00;99.90;;;;;;5014056;28;20113;-46
2021/08/13 02:22:18;;;;;;;5.80;5.20;;;14.00;99.90;;;;;;5013976;28;20393;-44
2021/08/13 02:24:44;;;;;;;4.32;3.70;;;13.90;99.90;;;;;;5013928;28;20030;-49
2021/08/13 02:27:10;;;;;;;4.72;4.25;;;14.00;99.90;;;;;;5013838;28;20041;-46
2021/08/13 02:29:35;;;;;;;4.40;3.97;;;14.00;99.90;;;;;;5012484;28;20026;-49
2021/08/13 02:32:01;;;;;;;5.85;4.95;;;14.00;99.90;;;;;;5013859;28;20101;-52
2021/08/13 02:34:27;;;;;;;7.15;4.65;;;14.00;99.90;;;;;;5013847;28;20026;-49
2021/08/13 02:37:14;;;;;;;5.38;4.40;;;14.00;99.90;;;;;;5013719;28;20030;-47
2021/08/13 02:39:51;;;;;;;5.45;4.55;;;14.00;99.90;;;;;;5013643;28;20034;-46
2021/08/13 02:42:29;;;;;;;5.38;4.35;;;14.00;99.90;;;;;;5013616;28;20485;-50
2021/08/13 02:44:59;;;;;;;5.35;4.20;;;14.00;99.90;;;;;;5012292;28;20470;-48
2021/08/13 02:47:27;;;;;;;5.88;5.25;;;14.00;99.90;;;;;;5013494;28;20029;-46
2021/08/13 02:49:57;;;;;;;7.25;5.50;;;13.90;99.90;;;;;;5013458;28;20017;-50
2021/08/13 02:52:28;;;;;;;6.32;4.75;;;13.90;99.90;;;;;;5013571;28;20033;-50
2021/08/13 02:54:59;;;;;;;7.75;4.72;;;13.90;99.90;;;;;;5013448;28;20113;-49
2021/08/13 02:57:29;;;;;;;5.15;4.22;;;13.90;99.90;;;;;;5013366;28;20033;-47
2021/08/13 02:59:55;;;;;;;4.93;4.43;;;13.90;99.90;;;;;;5012020;28;20029;-46
2021/08/13 03:02:21;;;;;;;5.82;5.22;;;13.90;99.90;;;;;;5013309;28;20025;-49
2021/08/13 03:04:49;;;;;;;8.15;5.32;;;14.00;99.90;;;;;;5013003;28;20481;-47
2021/08/13 03:07:15;;;;;;;5.30;4.63;;;14.10;99.90;;;;;;5013312;28;20393;-48
2021/08/13 03:09:42;;;;;;;6.95;4.68;;;14.10;99.90;;;;;;5013220;28;20024;-48
2021/08/13 03:12:10;;;;;;;5.60;4.53;;;14.00;99.90;;;;;;5013375;28;20034;-49
2021/08/13 03:14:35;;;;;;;5.07;4.57;;;14.00;99.90;;;;;;5011861;28;20029;-47
2021/08/13 03:17:01;;;;;;;6.22;4.70;;;14.00;99.90;;;;;;5013056;28;20108;-47
2021/08/13 03:19:27;;;;;;;6.80;5.05;;;14.10;99.90;;;;;;5012962;28;20065;-46
2021/08/13 03:21:53;;;;;;;4.93;4.43;;;14.10;99.90;;;;;;5012960;28;20026;-47
2021/08/13 03:24:19;;;;;;;5.22;4.32;;;14.10;99.90;;;;;;5013028;28;20033;-47
2021/08/13 03:26:47;;;;;;;4.85;4.32;;;14.20;99.90;;;;;;5012909;28;20034;-48
2021/08/13 03:29:13;;;;;;;5.72;4.70;;;14.10;99.90;;;;;;5011722;28;20026;-47
2021/08/13 03:31:43;;;;;;;4.80;4.18;;;14.20;99.90;;;;;;5012908;28;20410;-44
2021/08/13 03:34:09;;;;;;;4.45;4.05;;;14.20;99.90;;;;;;5011534;28;20030;-46
2021/08/13 03:36:36;;;;;;;5.32;4.75;;;14.20;99.90;;;;;;5012933;28;20394;-48
2021/08/13 03:39:03;;;;;;;6.40;4.95;;;14.20;99.90;;;;;;5012623;28;20040;-47
2021/08/13 03:41:29;;;;;;;4.63;3.92;;;14.20;99.90;;;;;;5012816;28;20049;-44
2021/08/13 03:43:54;;;;;;;5.30;4.80;;;14.20;99.90;;;;;;5012550;28;20038;-45
2021/08/13 03:46:20;;;;;;;5.40;4.72;;;14.20;99.90;;;;;;5007273;28;20700;-50
2021/08/13 03:48:45;;;;;;;5.25;4.75;;;14.10;99.90;;;;;;5011449;28;20044;-46
2021/08/13 03:51:11;;;;;;;6.30;4.97;;;14.10;99.90;;;;;;5012334;28;20038;-50
2021/08/13 03:53:36;;;;;;;5.82;4.65;;;14.10;99.90;;;;;;5012785;28;20061;-48
2021/08/13 03:56:02;;;;;;;7.18;5.20;;;14.20;99.90;;;;;;5012400;28;20026;-46
2021/08/13 03:58:27;;;;;;;4.95;4.50;;;14.20;99.90;;;;;;5012315;28;20101;-47
2021/08/13 04:00:53;;;;;;;4.80;3.88;;;14.20;99.90;;;;;;5014334;28;20030;-48
2021/08/13 04:03:18;;;;;;;5.30;4.63;;;14.30;99.90;;;;;;5016039;28;20040;-49
2021/08/13 04:05:44;;;;;;;6.75;4.45;;;14.30;99.90;;;;;;5016308;28;20026;-46
2021/08/13 04:08:09;;;;;;;5.22;4.45;;;14.30;99.90;;;;;;5016302;28;20040;-51
2021/08/13 04:10:35;;;;;;;5.25;4.32;;;14.30;99.90;;;;;;5014989;28;20080;-48
2021/08/13 04:13:00;;;;;;;6.10;5.30;;;14.30;99.90;;;;;;5016350;28;20056;-47
2021/08/13 04:15:27;;;;;;;5.55;5.05;;;14.40;99.90;;;;;;5014937;28;20076;-47
2021/08/13 04:17:53;;;;;;;7.30;5.47;;;14.40;99.90;;;;;;5015779;28;20018;-46
2021/08/13 04:20:18;;;;;;;7.50;5.43;;;14.50;99.90;;;;;;5016012;28;20080;-48
2021/08/13 04:22:44;;;;;;;6.65;5.32;;;14.60;99.90;;;;;;5016018;28;20030;-50
2021/08/13 04:25:09;;;;;;;5.85;5.18;;;14.60;99.90;;;;;;5015972;28;20034;-47
2021/08/13 04:27:35;;;;;;;5.18;4.65;;;14.70;99.90;;;;;;5016009;28;20022;-49
2021/08/13 04:30:00;;;;;;;5.60;5.00;;;14.70;99.90;;;;;;5014596;28;20022;-49
2021/08/13 04:32:26;;;;;;;6.18;5.57;;;14.80;99.90;;;;;;5016012;28;20044;-49
2021/08/13 04:34:51;;;;;;;5.45;4.80;;;14.90;99.90;;;;;;5006732;28;20022;-51
2021/08/13 04:37:17;;;;;;;4.97;4.47;;;14.90;99.90;;;;;;5013645;28;20727;-50
2021/08/13 04:39:43;;;;;;;5.10;4.60;;;14.90;99.90;;;;;;5014442;28;20038;-49
2021/08/13 04:42:08;;;;;;;6.55;5.55;;;15.00;99.90;;;;;;5014666;28;20026;-49
2021/08/13 04:44:34;;;;;;;7.72;5.50;;;15.10;99.90;;;;;;5014747;28;20022;-49
2021/08/13 04:47:00;;;;;;;8.25;5.90;;;15.30;99.90;;;;;;5015503;28;20041;-50
2021/08/13 04:49:26;;;;;;;6.45;5.63;;;15.60;99.90;;;;;;5015382;28;20030;-49
2021/08/13 04:51:51;;;;;;;6.78;5.30;;;16.30;99.90;;;;;;5015506;28;20149;-50
2021/08/13 04:54:17;;;;;;;8.07;6.10;;;17.20;99.90;;;;;;5015369;28;20030;-50
2021/08/13 04:56:42;;;;;;;7.00;5.05;;;17.80;99.90;;;;;;5015444;28;20453;-51
2021/08/13 04:59:08;;;;;;;8.73;5.97;;;18.40;99.90;;;;;;5014623;28;20469;-50
2021/08/13 05:01:33;;;;;;;6.05;4.85;;;18.90;99.90;;;;;;5015453;28;20030;-50
2021/08/13 05:03:59;;;;;;;5.18;4.78;;;19.20;99.90;;;;;;5015079;28;20117;-50
2021/08/13 05:06:25;;;;;;;7.05;5.88;;;19.30;99.90;;;;;;5015289;28;20026;-54
2021/08/13 05:08:50;;;;;;;5.93;5.30;;;19.60;99.90;;;;;;5015235;28;20061;-50
2021/08/13 05:11:16;;;;;;;5.85;5.30;;;20.30;99.90;;;;;;5015207;28;20033;-49
2021/08/13 05:13:41;;;;;;;5.78;5.18;;;21.50;99.90;;;;;;5015332;28;20034;-49
2021/08/13 05:16:07;;;;;;;6.85;6.00;;;21.80;99.90;;;;;;5017296;28;20034;-50
2021/08/13 05:18:34;;;;;;;7.30;6.10;;;21.80;99.90;;;;;;5015157;28;20036;-47
2021/08/13 05:20:59;;;;;;;8.70;6.05;;;21.70;99.90;;;;;;5015095;28;20040;-46
2021/08/13 05:23:25;;;;;;;5.40;4.90;;;21.60;99.90;;;;;;5013930;28;20108;-49
2021/08/13 05:25:51;;;;;;;6.45;5.85;;;21.70;99.90;;;;;;5015015;28;20026;-51
2021/08/13 05:28:16;;;;;;;6.97;6.25;;;21.50;99.90;;;;;;5015039;28;20030;-49
2021/08/13 05:30:42;;;;;;;5.95;5.35;;;21.10;99.90;;;;;;5013789;28;20030;-50
2021/08/13 05:33:07;;;;;;;6.57;5.88;;;20.60;99.90;;;;;;5014765;28;20065;-53
2021/08/13 05:35:36;;;;;;;9.57;5.90;;;20.20;99.90;;;;;;5014880;28;20033;-53
2021/08/13 05:38:02;;;;;;;6.70;5.43;;;19.90;99.90;;;;;;5014828;28;20109;-48
2021/08/13 05:40:28;;;;;;;6.55;5.38;;;19.60;99.90;;;;;;5014765;28;20149;-50
2021/08/13 05:42:55;;;;;;;9.07;6.30;;;19.40;99.90;;;;;;5014743;28;20092;-50
2021/08/13 05:45:21;;;;;;;7.97;6.13;;;19.30;99.90;;;;;;5013509;28;20073;-49
2021/08/13 05:47:46;;;;;;;5.57;4.97;;;19.10;99.90;;;;;;5014642;28;20138;-52
2021/08/13 05:50:15;;;;;;;11.73;5.30;;;19.00;99.90;;;;;;5014549;28;20033;-49
2021/08/13 05:52:41;;;;;;;5.45;4.95;;;18.90;99.90;;;;;;5014661;28;20033;-48
2021/08/13 05:55:07;;;;;;;7.15;5.97;;;18.90;99.90;;;;;;5014489;28;20026;-50
2021/08/13 05:57:32;;;;;;;6.43;5.82;;;18.80;99.90;;;;;;5014548;28;20033;-51
2021/08/13 05:59:58;;;;;;;7.82;6.32;;;18.80;99.90;;;;;;5013238;28;20117;-50
2021/08/13 06:02:23;;;;;;;7.45;6.57;;;18.70;99.90;;;;;;5014117;28;20125;-49
2021/08/13 06:04:49;;;;;;;7.40;6.65;;;18.70;99.90;;;;;;4996565;28;20462;-50
2021/08/13 06:07:14;;;;;;;6.95;5.45;;;18.60;99.90;;;;;;4977443;28;20405;-48
2021/08/13 06:09:40;;;;;;;6.75;5.90;;;18.60;99.90;;;;;;5014359;28;20064;-51
2021/08/13 06:12:06;;;;;;;8.95;5.65;;;18.70;99.90;;;;;;5014188;28;20034;-51
2021/08/13 06:14:32;;;;;;;6.53;5.88;;;18.80;99.90;;;;;;5013398;28;20034;-55
2021/08/13 06:16:59;;;;;;;8.13;6.22;;;18.90;99.90;;;;;;5013998;28;20578;-50
2021/08/13 06:19:25;;;;;;;5.38;4.88;;;19.00;99.90;;;;;;5014255;28;20065;-48
2021/08/13 06:21:51;;;;;;;10.25;7.68;;;19.10;99.90;;;;;;5013518;28;20057;-52
2021/08/13 06:24:16;;;;;;;9.85;7.30;;;19.20;99.90;;;;;;5013970;28;20046;-50
2021/08/13 06:26:42;;;;;;;6.20;5.60;;;19.10;99.90;;;;;;5014079;28;20104;-49
2021/08/13 06:29:07;;;;;;;7.80;6.30;;;19.00;99.90;;;;;;5012950;28;20026;-50
2021/08/13 06:31:33;;;;;;;7.60;6.80;;;19.00;99.90;;;;;;5013847;28;20029;-48
2021/08/13 06:33:58;;;;;;;6.80;5.85;;;19.00;99.90;;;;;;5013729;28;20092;-51
2021/08/13 06:36:24;;;;;;;6.55;5.65;;;20.60;99.90;;;;;;5013861;28;20026;-50
2021/08/13 06:38:49;;;;;;;6.28;5.65;;;22.70;99.90;;;;;;5013886;28;20033;-51
2021/08/13 06:41:15;;;;;;;6.70;6.00;;;24.70;99.90;;;;;;5013621;28;20037;-49
2021/08/13 06:43:40;;;;;;;6.80;5.72;;;26.30;96.90;;;;;;5013732;28;20018;-48
2021/08/13 06:46:06;;;;;;;6.85;6.25;;;27.30;91.60;;;;;;5012584;28;20025;-50
2021/08/13 06:48:31;;;;;;;7.05;5.10;;;28.40;88.90;;;;;;5013707;28;20030;-50
2021/08/13 06:50:57;;;;;;;8.10;6.63;;;29.70;83.20;;;;;;5013629;28;20068;-54
2021/08/13 06:53:22;;;;;;;12.65;6.75;;;30.30;71.30;;;;;;5013827;28;20113;-50
2021/08/13 06:55:48;;;;;;;8.82;6.10;;;30.70;64.70;;;;;;5013569;28;20053;-53
2021/08/13 06:58:13;;;;;;;7.40;6.40;;;31.20;63.00;;;;;;5013471;28;20417;-53
2021/08/13 07:00:39;;;;;;;7.90;6.43;;;32.00;60.00;;;;;;5012276;28;20053;-52
2021/08/13 07:03:04;;;;;;;11.60;6.00;;;32.50;56.90;;;;;;5011851;28;20034;-50
2021/08/13 07:05:30;;;;;;;8.10;5.35;;;32.60;52.20;;;;;;5013435;28;20036;-53
2021/08/13 07:07:55;;;;;;;9.00;5.90;;;33.30;52.20;;;;;;5013365;28;20381;-49
2021/08/13 07:10:21;;;;;;;10.35;6.20;;;33.80;48.70;;;;;;5013471;28;20109;-51
2021/08/13 07:12:46;;;;;;;7.10;5.70;;;34.10;47.90;;;;;;5013329;28;20409;-49
2021/08/13 07:15:12;;;;;;;8.10;5.95;;;34.60;46.80;;;;;;5012100;28;20032;-49
2021/08/13 07:17:38;;;;;;;7.82;5.45;;;35.10;43.00;;;;;;5013202;28;20044;-50
2021/08/13 07:20:05;;;;;;;7.15;5.93;;;35.00;40.70;;;;;;5013066;28;20022;-49
2021/08/13 07:22:32;;;;;;;6.65;5.30;;;35.00;41.40;;;;;;5013049;28;20027;-53
2021/08/13 07:24:58;;;;;;;5.38;4.85;;;35.00;40.70;;;;;;5013141;28;20025;-49
2021/08/13 07:27:24;;;;;;;7.07;5.43;;;35.40;40.20;;;;;;5012976;28;20022;-52
2021/08/13 07:29:49;;;;;;;5.70;4.75;;;35.30;39.40;;;;;;5011914;28;20029;-51
2021/08/13 07:32:14;;;;;;;6.68;4.57;;;35.60;37.80;;;;;;5005357;28;20046;-50
2021/08/13 07:34:40;;;;;;;8.52;4.88;;;36.30;36.70;;;;;;5012063;28;20073;-54
2021/08/13 07:37:05;;;;;;;12.30;4.85;;;37.00;36.00;;;;;;5012906;28;20041;-55
2021/08/13 07:39:31;;;;;;;6.03;4.35;;;37.50;34.60;;;;;;5012937;28;20084;-50
2021/08/13 07:41:57;;;;;;;5.15;4.65;;;37.50;34.00;;;;;;5012864;28;20105;-54
2021/08/13 07:44:23;;;;;;;6.43;4.70;;;37.80;32.90;;;;;;5011782;28;20018;-50
2021/08/13 07:46:48;;;;;;;6.03;4.85;;;38.00;31.70;;;;;;5012836;28;20069;-50
2021/08/13 07:49:14;;;;;;;4.85;4.45;;;38.30;31.40;;;;;;5012735;28;20068;-54
2021/08/13 07:51:40;;;;;;;5.85;4.63;;;38.60;30.50;;;;;;5012807;28;20092;-50
2021/08/13 07:54:06;;;;;;;5.82;4.18;;;38.60;29.60;;;;;;5012746;28;20033;-50
2021/08/13 07:56:31;;;;;;;5.35;4.45;;;38.70;28.60;;;;;;5012708;28;20026;-49
2021/08/13 07:58:57;;;;;;;4.25;3.80;;;39.20;28.20;;;;;;5011710;28;20041;-53
2021/08/13 08:01:22;;;;;;;6.32;4.28;;;39.50;27.40;;;;;;5012443;28;20136;-52
2021/08/13 08:03:48;;;;;;;4.00;3.58;;;39.90;27.10;;;;;;5012558;28;20074;-54
2021/08/13 08:06:14;;;;;;;6.28;4.60;;;40.40;26.50;;;;;;5012610;28;20359;-53
2021/08/13 08:08:40;;;;;;;6.05;4.50;;;40.70;26.00;;;;;;5012740;28;20440;-54
2021/08/13 08:11:05;;;;;;;7.68;4.20;;;40.90;25.30;;;;;;5012726;28;20105;-55
2021/08/13 08:13:31;;;;;;;7.63;4.07;;;41.20;25.00;;;;;;5012554;28;20037;-54
2021/08/13 08:15:56;;;;;;;4.45;3.67;;;41.60;24.60;;;;;;5011688;28;20029;-50
2021/08/13 08:18:23;;;;;;;4.20;3.80;;;42.00;24.10;;;;;;5012591;28;20030;-52
2021/08/13 08:20:50;;;;;;;6.53;3.95;;;42.40;23.20;;;;;;5012486;28;20436;-50
2021/08/13 08:23:16;;;;;;;3.75;3.45;;;42.80;22.60;;;;;;5012455;28;20026;-51
2021/08/13 08:25:41;;;;;;;7.13;4.82;;;43.00;22.30;;;;;;5012538;28;20073;-54
2021/08/13 08:28:07;;;;;;;7.47;4.78;;;43.00;21.20;;;;;;5012498;28;20017;-52
2021/08/13 08:30:33;;;;;;;5.70;4.25;;;42.40;20.20;;;;;;5011369;28;20033;-53
2021/08/13 08:32:58;;;;;;;5.22;4.15;;;41.70;20.50;;;;;;5012456;28;20018;-49
2021/08/13 08:35:24;;;;;;;6.40;4.20;;;41.60;21.10;;;;;;5012347;28;20189;-51
2021/08/13 08:37:50;;;;;;;7.70;4.00;;;41.60;21.10;;;;;;5012507;28;20149;-52
2021/08/13 08:40:22;;;;;;;7.43;4.88;;;41.70;21.20;;;;;;5012344;28;20069;-51
2021/08/13 08:42:48;;;;;;;9.32;4.55;;;41.20;20.20;;;;;;5012260;28;20495;-52
2021/08/13 08:45:14;;;;;;;7.57;3.90;;;40.90;21.00;;;;;;5011935;28;20097;-54
2021/08/13 08:47:41;;;;;;;4.10;3.70;;;41.20;21.10;;;;;;5015924;28;20022;-49
2021/08/13 08:50:09;;;;;;;5.35;4.32;;;41.60;20.70;;;;;;5015859;28;20144;-55
2021/08/13 08:52:36;;;;;;;3.72;3.42;;;41.50;20.30;;;;;;5015910;28;20091;-50
2021/08/13 08:55:01;;;;;;;6.00;3.70;;;41.50;20.70;;;;;;5014604;28;20034;-54
2021/08/13 08:57:29;;;;;;;3.72;3.42;;;41.70;20.50;;;;;;5015510;28;20140;-54
2021/08/13 08:59:57;;;;;;;5.22;4.05;;;41.60;20.60;;;;;;5014777;28;20022;-51
2021/08/13 09:02:23;;;;;;;4.13;3.47;;;41.60;20.40;;;;;;5015514;28;20025;-55
2021/08/13 09:04:49;;;;;;;5.03;4.03;;;41.60;20.60;;;;;;5015414;28;20057;-51
2021/08/13 09:07:15;;;;;;;9.75;5.65;;;41.40;19.90;;;;;;5015449;28;20023;-55
2021/08/13 09:09:40;;;;;;;9.57;4.70;;;40.70;19.70;;;;;;5015471;28;20213;-54
2021/08/13 09:12:06;;;;;;;4.07;3.67;;;40.60;20.10;;;;;;5015361;28;20033;-51
2021/08/13 09:14:38;;;;;;;8.02;4.78;;;40.90;20.20;;;;;;5014469;28;20097;-51
2021/08/13 09:17:04;;;;;;;12.77;4.57;;;41.00;19.60;;;;;;5015413;28;20025;-53
2021/08/13 09:19:40;;;;;;;4.97;4.43;;;40.70;19.50;;;;;;5015284;28;20073;-52
2021/08/13 09:22:17;;;;;;;5.13;4.07;;;40.50;20.10;;;;;;5015214;28;20048;-51
2021/08/13 09:24:45;;;;;;;5.70;4.15;;;40.30;20.30;;;;;;5015157;28;20049;-49
2021/08/13 09:27:25;;;;;;;7.63;4.28;;;40.50;20.60;;;;;;5015187;28;20025;-52
2021/08/13 09:30:14;;;;;;;5.18;3.70;;;40.10;19.70;;;;;;5014012;28;20521;-51
2021/08/13 09:32:42;;;;;;;4.47;3.67;;;39.90;19.90;;;;;;5012416;28;20097;-52
2021/08/13 09:35:09;;;;;;;3.70;3.22;;;40.10;19.80;;;;;;5014938;28;20049;-52
2021/08/13 09:37:39;;;;;;;5.05;3.13;;;40.30;20.00;;;;;;5014946;28;20025;-51
2021/08/13 09:40:06;;;;;;;3.75;3.13;;;40.50;19.90;;;;;;5014967;28;20022;-51
2021/08/13 09:42:37;;;;;;;4.45;4.05;;;40.80;19.60;;;;;;5014737;28;20319;-53
2021/08/13 09:45:08;;;;;;;4.10;3.67;;;40.90;19.10;;;;;;5013969;28;20416;-51
2021/08/13 09:47:47;;;;;;;4.05;3.28;;;40.60;18.80;;;;;;5014653;28;20079;-51
2021/08/13 09:50:16;;;;;;;5.95;4.05;;;40.60;19.10;;;;;;5014782;28;20469;-55
2021/08/13 09:53:02;;;;;;;4.72;4.28;;;40.30;19.10;;;;;;5014646;28;20057;-50
2021/08/13 09:55:28;;;;;;;7.55;4.40;;;39.60;19.30;;;;;;5014419;28;20022;-51
2021/08/13 09:57:55;;;;;;;5.50;3.83;;;38.90;19.60;;;;;;5013677;28;20030;-51
2021/08/13 10:00:20;;;;;;;4.38;3.60;;;38.20;20.50;;;;;;5013535;28;20026;-54
2021/08/13 10:02:47;;;;;;;5.00;3.67;;;38.20;20.80;;;;;;5014593;28;20033;-52
2021/08/13 10:05:20;;;;;;;4.22;3.75;;;38.10;21.20;;;;;;5014456;28;20085;-54
2021/08/13 10:07:51;;;;;;;8.23;3.63;;;37.70;21.50;;;;;;5014450;28;20029;-53
2021/08/13 10:10:21;;;;;;;4.25;3.60;;;37.10;21.90;;;;;;5013125;28;20539;-52
2021/08/13 10:12:47;;;;;;;4.43;3.55;;;36.40;22.70;;;;;;5014354;28;20026;-51
2021/08/13 10:15:32;;;;;;;6.63;4.35;;;35.70;23.40;;;;;;5013427;28;20026;-54
2021/08/13 10:18:01;;;;;;;4.78;4.07;;;35.10;24.40;;;;;;5014330;28;20185;-51
2021/08/13 10:20:29;;;;;;;4.25;3.85;;;34.50;25.40;;;;;;5012759;28;20029;-52
2021/08/13 10:22:55;;;;;;;4.93;4.15;;;33.90;25.70;;;;;;5013969;28;20022;-48
2021/08/13 10:25:21;;;;;;;6.35;3.97;;;33.40;26.30;;;;;;5014056;28;20025;-50
2021/08/13 10:27:47;;;;;;;5.65;4.47;;;33.30;26.60;;;;;;5014176;28;20057;-49
2021/08/13 10:30:16;;;;;;;6.57;3.92;;;33.30;26.90;;;;;;5013144;28;20026;-51
2021/08/13 10:32:42;;;;;;;4.43;3.80;;;33.00;27.20;;;;;;5013877;28;20041;-48
2021/08/13 10:35:09;;;;;;;3.92;3.50;;;32.90;27.10;;;;;;5013960;28;20508;-49
2021/08/13 10:37:36;;;;;;;4.47;3.58;;;32.90;27.00;;;;;;5009605;28;20036;-52
2021/08/13 10:40:03;;;;;;;3.88;3.17;;;32.90;27.30;;;;;;5012485;28;20038;-50
2021/08/13 10:42:29;;;;;;;4.43;3.45;;;32.90;27.20;;;;;;5012150;28;20053;-48
2021/08/13 10:45:07;;;;;;;5.07;3.22;;;32.80;27.30;;;;;;5011487;28;20026;-50
2021/08/13 10:47:54;;;;;;;4.38;3.42;;;32.80;28.20;;;;;;5012216;28;20038;-50
2021/08/13 10:50:20;;;;;;;5.13;4.20;;;32.70;27.80;;;;;;5012260;28;20541;-51
2021/08/13 10:52:45;;;;;;;7.65;4.53;;;32.60;28.20;;;;;;5012064;28;20022;-51
2021/08/13 10:55:39;;;;;;;5.63;4.38;;;32.40;28.20;;;;;;5012009;28;20030;-55
2021/08/13 10:58:06;;;;;;;7.30;5.03;;;31.90;29.50;;;;;;5012027;28;20030;-50
2021/08/13 11:00:58;;;;;;;5.32;4.45;;;31.70;29.80;;;;;;5010777;28;20561;-52
2021/08/13 11:03:23;;;;;;;5.47;4.45;;;31.70;30.20;;;;;;5003316;28;20124;-54
2021/08/13 11:05:51;;;;;;;4.90;3.90;;;31.70;30.00;;;;;;5011976;28;20438;-55
2021/08/13 11:08:17;;;;;;;4.10;3.65;;;31.80;29.90;;;;;;5011912;28;20029;-53
2021/08/13 11:10:48;;;;;;;5.90;4.40;;;31.80;30.00;;;;;;5011748;28;20509;-56
2021/08/13 11:13:14;;;;;;;5.70;4.40;;;31.60;30.00;;;;;;5010636;28;20502;-52
2021/08/13 11:15:40;;;;;;;4.07;3.67;;;31.50;30.10;;;;;;5010809;28;20052;-54
2021/08/13 11:18:25;;;;;;;6.10;3.92;;;31.60;30.40;;;;;;5011929;28;20045;-52
2021/08/13 11:20:51;;;;;;;7.78;5.25;;;31.70;30.30;;;;;;5010224;28;20030;-51
2021/08/13 11:23:16;;;;;;;12.13;4.80;;;31.70;29.60;;;;;;5011721;28;20536;-52
2021/08/13 11:25:47;;;;;;;4.55;4.07;;;31.70;29.60;;;;;;5010212;28;20101;-55
2021/08/13 11:28:18;;;;;;;5.97;3.95;;;31.90;29.80;;;;;;5011789;28;20040;-52
2021/08/13 11:30:45;;;;;;;4.25;3.80;;;31.90;30.00;;;;;;5010649;28;20048;-49
2021/08/13 11:33:26;;;;;;;4.78;4.00;;;31.90;30.00;;;;;;5011659;28;20066;-52
2021/08/13 11:35:53;;;;;;;4.18;3.78;;;31.80;30.30;;;;;;5011543;28;20033;-51
2021/08/13 11:38:46;;;;;;;4.30;3.90;;;31.70;30.30;;;;;;5011637;28;20022;-53
2021/08/13 11:41:21;;;;;;;5.78;5.18;;;31.70;31.10;;;;;;5011484;28;20052;-54
2021/08/13 11:43:55;;;;;;;5.07;4.50;;;31.90;31.40;;;;;;5011274;28;20421;-56
2021/08/13 11:46:36;;;;;;;5.30;4.38;;;31.80;32.00;;;;;;5011289;28;20330;-51
2021/08/13 11:49:04;;;;;;;5.97;4.05;;;31.80;32.20;;;;;;5011372;28;20029;-54
2021/08/13 11:51:30;;;;;;;6.93;4.40;;;31.70;31.70;;;;;;5011363;28;20374;-56
2021/08/13 11:53:56;;;;;;;5.25;4.75;;;31.70;32.30;;;;;;5011044;28;20376;-53
2021/08/13 11:56:26;;;;;;;5.07;4.15;;;31.50;32.00;;;;;;5011345;28;20109;-52
2021/08/13 11:59:03;;;;;;;4.55;4.10;;;31.60;32.00;;;;;;5009992;28;20029;-55
2021/08/13 12:01:29;;;;;;;5.57;4.63;;;31.70;33.20;;;;;;5011183;28;20055;-54
2021/08/13 12:03:55;;;;;;;4.45;4.03;;;31.80;31.60;;;;;;5011314;28;20061;-49
2021/08/13 12:06:21;;;;;;;7.80;4.00;;;32.00;31.40;;;;;;5011297;28;20018;-52
2021/08/13 12:08:47;;;;;;;8.48;5.13;;;32.10;31.50;;;;;;5009839;28;20232;-54
2021/08/13 12:11:19;;;;;;;5.05;4.38;;;32.10;31.20;;;;;;5011251;28;20384;-52
2021/08/13 12:13:44;;;;;;;4.97;4.00;;;32.00;31.70;;;;;;5010944;28;20022;-56
2021/08/13 12:16:10;;;;;;;8.77;4.68;;;31.90;31.50;;;;;;5010538;28;20037;-55
2021/08/13 12:18:37;;;;;;;7.20;4.03;;;31.90;31.10;;;;;;5011023;28;20058;-51
2021/08/13 12:21:07;;;;;;;7.00;4.55;;;31.80;31.10;;;;;;5012911;28;20018;-52
2021/08/13 12:23:32;;;;;;;5.25;4.28;;;31.80;31.50;;;;;;5014755;28;20044;-56
2021/08/13 12:26:02;;;;;;;6.57;5.15;;;31.70;31.10;;;;;;5014587;28;20532;-51
2021/08/13 12:28:31;;;;;;;5.13;4.55;;;31.60;30.30;;;;;;5014490;28;20022;-51
2021/08/13 12:31:07;;;;;;;7.07;4.47;;;31.50;30.70;;;;;;5013807;28;20033;-51
2021/08/13 12:33:33;;;;;;;6.00;4.30;;;31.50;31.20;;;;;;5014700;28;20030;-56
2021/08/13 12:35:59;;;;;;;5.55;4.28;;;31.60;30.60;;;;;;5014647;28;20076;-54
2021/08/13 12:38:33;;;;;;;5.07;4.28;;;31.70;30.60;;;;;;5014558;28;20034;-52
2021/08/13 12:41:00;;;;;;;5.88;4.45;;;31.80;30.10;;;;;;5014468;28;20117;-49
2021/08/13 12:43:26;;;;;;;7.35;5.00;;;31.90;30.10;;;;;;5016004;28;20093;-51
2021/08/13 12:45:53;;;;;;;4.50;4.10;;;32.00;29.80;;;;;;5015042;28;20036;-53
2021/08/13 12:48:20;;;;;;;7.03;4.97;;;32.00;29.70;;;;;;5015931;28;20080;-49